Time;durP1;ratioP1;P1;durP2;ratioP2;P2;SDS_P1;SDS_P2;PMS_P1;PMS_P2;Temp;Humidity;BMP_temperature;BMP_pressure;BME280_temperature;BME280_humidity;BME280_pressure;Samples;Min_cycle;Max_cycle;Signal;HPM_P1;HPM_P2
2023/10/13 00:00:44;;;;;;;9.23;5.47;;;;;;;;;;6211407;28;20179;-62
2023/10/13 00:03:45;;;;;;;8.77;5.53;;;;;;;;;;6211721;28;20362;-63
2023/10/13 00:07:08;;;;;;;7.47;5.27;;;;;;;;;;6217466;28;20257;-62
2023/10/13 00:10:10;;;;;;;7.77;4.80;;;;;;;;;;6234867;28;20190;-62
2023/10/13 00:13:15;;;;;;;8.90;4.90;;;;;;;;;;6229239;28;20214;-63
2023/10/13 00:16:27;;;;;;;13.73;5.40;;;;;;;;;;6206548;28;20245;-62
2023/10/13 00:19:36;;;;;;;10.17;5.13;;;;;;;;;;6215740;28;20181;-63
2023/10/13 00:22:40;;;;;;;9.73;5.60;;;;;;;;;;6226992;28;20235;-62
2023/10/13 00:25:49;;;;;;;8.07;4.60;;;;;;;;;;6205272;28;20261;-63
2023/10/13 00:28:58;;;;;;;9.97;5.50;;;;;;;;;;6238245;28;20188;-63
2023/10/13 00:32:00;;;;;;;7.43;5.17;;;;;;;;;;6209048;28;20266;-62
2023/10/13 00:35:05;;;;;;;11.33;5.37;;;;;;;;;;6202565;28;20215;-62
2023/10/13 00:38:17;;;;;;;7.33;5.33;;;;;;;;;;6223038;28;20187;-62
2023/10/13 00:41:33;;;;;;;8.57;5.20;;;;;;;;;;6230855;28;20247;-63
2023/10/13 00:44:45;;;;;;;7.03;4.80;;;;;;;;;;6213416;28;20183;-62
2023/10/13 00:47:50;;;;;;;8.37;5.60;;;;;;;;;;6218831;28;20205;-63
2023/10/13 00:50:51;;;;;;;8.83;5.10;;;;;;;;;;6210222;28;20187;-63
2023/10/13 00:53:52;;;;;;;7.77;4.70;;;;;;;;;;6226346;28;20226;-62
2023/10/13 00:57:12;;;;;;;10.07;4.87;;;;;;;;;;6237139;28;20226;-62
2023/10/13 01:00:19;;;;;;;9.43;4.83;;;;;;;;;;6240336;28;20182;-63
2023/10/13 01:03:25;;;;;;;9.57;5.20;;;;;;;;;;6208464;28;20282;-63
2023/10/13 01:06:30;;;;;;;6.87;4.13;;;;;;;;;;6213520;28;20184;-63
2023/10/13 01:09:42;;;;;;;9.47;5.20;;;;;;;;;;6214286;28;20245;-62
2023/10/13 01:12:43;;;;;;;10.90;5.03;;;;;;;;;;6230278;28;20192;-62
2023/10/13 01:15:46;;;;;;;9.47;5.00;;;;;;;;;;6224230;28;20218;-62
2023/10/13 01:18:48;;;;;;;8.17;4.63;;;;;;;;;;6213443;28;20273;-62
2023/10/13 01:21:49;;;;;;;7.93;5.03;;;;;;;;;;6206563;28;20191;-62
2023/10/13 01:24:51;;;;;;;8.07;4.43;;;;;;;;;;6218145;28;20263;-62
2023/10/13 01:27:52;;;;;;;8.53;4.67;;;;;;;;;;6209511;28;20195;-62
2023/10/13 01:30:53;;;;;;;12.53;5.03;;;;;;;;;;6211048;28;20195;-62
2023/10/13 01:33:58;;;;;;;9.13;5.43;;;;;;;;;;6207174;28;20196;-62
2023/10/13 01:37:05;;;;;;;8.23;4.90;;;;;;;;;;6235641;28;20242;-62
2023/10/13 01:40:06;;;;;;;8.00;4.73;;;;;;;;;;6209887;28;20191;-62
2023/10/13 01:43:10;;;;;;;8.00;4.87;;;;;;;;;;6214298;28;20191;-62
2023/10/13 01:46:15;;;;;;;6.03;4.60;;;;;;;;;;6208784;28;20187;-62
2023/10/13 01:49:16;;;;;;;7.50;4.10;;;;;;;;;;6203148;28;20214;-62
2023/10/13 01:52:17;;;;;;;7.80;4.60;;;;;;;;;;6207845;28;20191;-62
2023/10/13 01:55:19;;;;;;;8.20;5.00;;;;;;;;;;6207290;28;20207;-62
2023/10/13 01:58:22;;;;;;;8.97;4.70;;;;;;;;;;6225648;28;20215;-62
2023/10/13 02:01:26;;;;;;;6.93;5.00;;;;;;;;;;6206487;28;20199;-62
2023/10/13 02:04:42;;;;;;;6.07;4.73;;;;;;;;;;6204460;28;20191;-62
2023/10/13 02:07:45;;;;;;;10.00;5.30;;;;;;;;;;6223658;28;20274;-62
2023/10/13 02:10:46;;;;;;;10.27;5.03;;;;;;;;;;6232333;28;20194;-62
2023/10/13 02:13:53;;;;;;;9.63;4.93;;;;;;;;;;6204546;28;20187;-62
2023/10/13 02:17:11;;;;;;;6.10;5.10;;;;;;;;;;6202142;28;20265;-63
2023/10/13 02:20:15;;;;;;;6.83;4.70;;;;;;;;;;6205497;28;20190;-62
2023/10/13 02:23:16;;;;;;;7.53;4.30;;;;;;;;;;6211478;28;20188;-62
2023/10/13 02:26:38;;;;;;;9.37;4.77;;;;;;;;;;6224639;28;20237;-62
2023/10/13 02:29:46;;;;;;;8.50;5.77;;;;;;;;;;6220334;28;20218;-62
2023/10/13 02:32:48;;;;;;;9.00;5.50;;;;;;;;;;6225275;28;20195;-62
2023/10/13 02:35:55;;;;;;;8.30;5.03;;;;;;;;;;6207303;28;20234;-62
2023/10/13 02:38:58;;;;;;;8.77;5.20;;;;;;;;;;6224309;28;20242;-63
2023/10/13 02:41:59;;;;;;;7.97;4.97;;;;;;;;;;6196357;28;20188;-62
2023/10/13 02:45:00;;;;;;;16.33;5.33;;;;;;;;;;6205218;28;20191;-62
2023/10/13 02:48:12;;;;;;;10.23;5.10;;;;;;;;;;6226932;28;20285;-62
2023/10/13 02:51:16;;;;;;;8.50;4.80;;;;;;;;;;6209028;28;20202;-63
2023/10/13 02:54:20;;;;;;;8.57;4.77;;;;;;;;;;6223170;28;20202;-64
2023/10/13 02:57:22;;;;;;;7.67;4.57;;;;;;;;;;6216572;28;20247;-62
2023/10/13 03:00:24;;;;;;;7.50;5.10;;;;;;;;;;6208586;28;20202;-62
2023/10/13 03:03:27;;;;;;;7.97;4.93;;;;;;;;;;6219075;28;20183;-63
2023/10/13 03:06:34;;;;;;;9.20;5.10;;;;;;;;;;6206559;28;20223;-61
2023/10/13 03:09:37;;;;;;;8.00;5.03;;;;;;;;;;6202039;28;20231;-62
2023/10/13 03:12:39;;;;;;;6.90;4.50;;;;;;;;;;6209702;28;20188;-62
2023/10/13 03:15:40;;;;;;;7.97;4.93;;;;;;;;;;6226899;28;20209;-62
2023/10/13 03:18:51;;;;;;;9.57;4.97;;;;;;;;;;6206582;28;20325;-61
2023/10/13 03:21:56;;;;;;;7.47;5.17;;;;;;;;;;6204732;28;20195;-62
2023/10/13 03:25:04;;;;;;;7.30;5.33;;;;;;;;;;6212185;28;20290;-62
2023/10/13 03:28:07;;;;;;;7.50;4.90;;;;;;;;;;6214572;28;20193;-62
2023/10/13 03:31:17;;;;;;;6.90;4.50;;;;;;;;;;6181221;28;20216;-62
2023/10/13 03:34:19;;;;;;;10.67;5.10;;;;;;;;;;6190229;28;20200;-61
2023/10/13 03:37:38;;;;;;;8.97;5.10;;;;;;;;;;6210180;28;20298;-62
2023/10/13 03:40:40;;;;;;;7.40;4.73;;;;;;;;;;6195683;28;20216;-62
2023/10/13 03:44:07;;;;;;;8.63;4.90;;;;;;;;;;6204537;28;20200;-62
2023/10/13 03:47:17;;;;;;;6.07;4.97;;;;;;;;;;6211319;28;20250;-62
2023/10/13 03:50:32;;;;;;;9.07;4.97;;;;;;;;;;6200455;28;20195;-62
2023/10/13 03:53:34;;;;;;;9.37;4.97;;;;;;;;;;6222737;28;20192;-62
2023/10/13 03:59:39;;;;;;;6.50;4.57;;;;;;;;;;6228237;28;20195;-63
2023/10/13 04:02:46;;;;;;;6.30;4.50;;;;;;;;;;6208136;28;20195;-62
2023/10/13 04:06:06;;;;;;;10.10;5.80;;;;;;;;;;6210005;28;20199;-62
2023/10/13 04:19:26;;;;;;;5.57;4.50;;;;;;;;;;6191527;28;20270;-62
2023/10/13 04:28:51;;;;;;;9.93;4.77;;;;;;;;;;6221712;28;20205;-63
2023/10/13 04:32:00;;;;;;;10.83;5.10;;;;;;;;;;6206503;28;20211;-63
2023/10/13 04:35:10;;;;;;;9.53;4.70;;;;;;;;;;6221164;28;20207;-63
2023/10/13 04:38:19;;;;;;;8.60;5.93;;;;;;;;;;6225027;28;20199;-63
2023/10/13 04:41:23;;;;;;;9.87;5.13;;;;;;;;;;6206379;28;20255;-63
2023/10/13 04:47:29;;;;;;;10.33;4.90;;;;;;;;;;6210977;28;20274;-63
2023/10/13 04:50:34;;;;;;;7.23;4.60;;;;;;;;;;6213145;28;20206;-63
2023/10/13 04:54:00;;;;;;;7.27;4.90;;;;;;;;;;6202815;28;20202;-63
2023/10/13 04:57:23;;;;;;;8.17;4.70;;;;;;;;;;6218228;28;20216;-63
2023/10/13 05:03:52;;;;;;;8.20;5.07;;;;;;;;;;6229472;28;20198;-62
2023/10/13 05:46:49;;;;;;;7.53;4.50;;;;;;;;;;6217520;28;20282;-63
2023/10/13 05:49:53;;;;;;;6.43;5.33;;;;;;;;;;6196773;28;20199;-62
2023/10/13 06:29:33;;;;;;;10.40;5.50;;;;;;;;;;6228434;28;20223;-64
2023/10/13 06:32:34;;;;;;;9.70;5.77;;;;;;;;;;6218714;28;20240;-62
2023/10/13 06:35:38;;;;;;;7.67;4.83;;;;;;;;;;6203576;28;20219;-62
2023/10/13 06:38:39;;;;;;;8.37;5.60;;;;;;;;;;6199778;28;20204;-62
2023/10/13 06:41:41;;;;;;;9.47;5.20;;;;;;;;;;6205151;28;20186;-62
2023/10/13 06:44:45;;;;;;;11.77;5.20;;;;;;;;;;6214710;28;20198;-62
2023/10/13 06:47:46;;;;;;;10.43;4.90;;;;;;;;;;6213585;28;20198;-63
2023/10/13 06:50:48;;;;;;;9.73;4.77;;;;;;;;;;6221813;28;20476;-63
2023/10/13 06:53:56;;;;;;;7.77;4.90;;;;;;;;;;6216642;28;20195;-62
2023/10/13 06:56:57;;;;;;;10.37;5.17;;;;;;;;;;6230953;28;20293;-62
2023/10/13 06:59:58;;;;;;;13.67;4.87;;;;;;;;;;6207427;28;20202;-62
2023/10/13 07:03:06;;;;;;;9.13;5.33;;;;;;;;;;6213950;28;20202;-62
2023/10/13 07:06:17;;;;;;;7.17;4.90;;;;;;;;;;6233466;28;20282;-62
2023/10/13 07:09:39;;;;;;;8.23;5.13;;;;;;;;;;6224761;28;20195;-62
2023/10/13 07:12:43;;;;;;;9.90;5.53;;;;;;;;;;6244795;28;20229;-62
2023/10/13 07:15:47;;;;;;;8.00;5.40;;;;;;;;;;6223895;28;20211;-63
2023/10/13 07:18:54;;;;;;;9.00;5.70;;;;;;;;;;6209853;28;20198;-63
2023/10/13 07:22:02;;;;;;;8.70;5.57;;;;;;;;;;6239610;28;20191;-63
2023/10/13 07:25:06;;;;;;;9.10;4.87;;;;;;;;;;6219347;28;20240;-63
2023/10/13 07:28:10;;;;;;;10.40;5.43;;;;;;;;;;6211392;28;20195;-63
2023/10/13 07:31:14;;;;;;;6.93;5.00;;;;;;;;;;6223833;28;20222;-63
2023/10/13 07:34:26;;;;;;;6.67;4.90;;;;;;;;;;6201857;28;20195;-63
2023/10/13 07:37:30;;;;;;;7.90;4.67;;;;;;;;;;6211071;28;20219;-63
2023/10/13 07:43:32;;;;;;;7.70;5.20;;;;;;;;;;6227135;28;20196;-63
2023/10/13 07:46:35;;;;;;;8.33;4.70;;;;;;;;;;6217657;28;20206;-64
2023/10/13 07:49:37;;;;;;;8.50;4.67;;;;;;;;;;6219342;28;20206;-63
2023/10/13 07:52:54;;;;;;;7.57;5.27;;;;;;;;;;6227345;28;20192;-63
2023/10/13 07:55:55;;;;;;;7.10;5.23;;;;;;;;;;6213242;28;20242;-63
2023/10/13 07:59:06;;;;;;;6.10;4.77;;;;;;;;;;6215118;28;20198;-63
2023/10/13 08:02:13;;;;;;;9.17;4.90;;;;;;;;;;6210705;28;20328;-63
2023/10/13 08:05:24;;;;;;;8.13;4.97;;;;;;;;;;6210744;28;20237;-63
2023/10/13 08:08:40;;;;;;;7.17;4.73;;;;;;;;;;6225371;28;20286;-62
2023/10/13 08:11:41;;;;;;;8.77;4.57;;;;;;;;;;6211024;28;20292;-62
2023/10/13 08:14:44;;;;;;;7.10;4.80;;;;;;;;;;6217175;28;20188;-62
2023/10/13 08:17:45;;;;;;;6.03;4.50;;;;;;;;;;6207179;28;20231;-62
2023/10/13 08:20:47;;;;;;;9.17;4.97;;;;;;;;;;6218092;28;20366;-62
2023/10/13 08:30:29;;;;;;;7.33;5.17;;;;;;;;;;6167867;28;20199;-62
2023/10/13 08:33:32;;;;;;;7.43;5.13;;;;;;;;;;6210475;28;20273;-62
2023/10/13 08:36:37;;;;;;;6.40;5.10;;;;;;;;;;6210178;28;20219;-62
2023/10/13 08:46:06;;;;;;;6.97;4.67;;;;;;;;;;6240891;28;20211;-62
2023/10/13 08:49:14;;;;;;;9.07;4.83;;;;;;;;;;6198013;28;20282;-62
2023/10/13 08:55:49;;;;;;;6.57;4.23;;;;;;;;;;6246011;28;20246;-63
2023/10/13 09:02:15;;;;;;;7.93;4.20;;;;;;;;;;6235823;28;20192;-62
2023/10/13 09:08:58;;;;;;;10.67;4.80;;;;;;;;;;6237928;28;20194;-63
2023/10/13 09:12:09;;;;;;;7.80;4.37;;;;;;;;;;6221600;28;20251;-62
2023/10/13 09:18:38;;;;;;;11.43;6.10;;;;;;;;;;6223814;28;20191;-62
2023/10/13 09:24:43;;;;;;;9.50;4.90;;;;;;;;;;6243276;28;20235;-63
2023/10/13 09:27:45;;;;;;;8.80;5.10;;;;;;;;;;6200266;28;20195;-62
2023/10/13 09:30:46;;;;;;;7.23;5.03;;;;;;;;;;6209489;28;20191;-62
2023/10/13 09:33:50;;;;;;;8.37;4.53;;;;;;;;;;6197138;28;20210;-63
2023/10/13 09:36:55;;;;;;;9.37;4.80;;;;;;;;;;6214058;28;20212;-62
2023/10/13 09:40:24;;;;;;;11.93;4.97;;;;;;;;;;6220987;28;20205;-63
2023/10/13 09:43:19;;;;;;;6.60;4.53;;;;;;;;;;6237179;28;20195;-62
2023/10/13 09:46:23;;;;;;;10.10;4.37;;;;;;;;;;6217518;28;20191;-63
2023/10/13 09:49:44;;;;;;;9.13;4.40;;;;;;;;;;6229054;28;20187;-63
2023/10/13 09:52:46;;;;;;;8.47;5.20;;;;;;;;;;6223504;28;20195;-63
2023/10/13 09:55:50;;;;;;;7.00;4.37;;;;;;;;;;6198963;28;20219;-63
2023/10/13 09:58:54;;;;;;;8.23;4.97;;;;;;;;;;6219197;28;20230;-63
2023/10/13 10:01:58;;;;;;;6.00;4.03;;;;;;;;;;6240052;28;20205;-63
2023/10/13 10:05:21;;;;;;;6.03;3.97;;;;;;;;;;6206895;28;20191;-63
2023/10/13 10:08:33;;;;;;;6.83;4.30;;;;;;;;;;6218908;28;20195;-63
2023/10/13 10:11:34;;;;;;;5.07;4.23;;;;;;;;;;6228419;28;20198;-63
2023/10/13 10:14:42;;;;;;;8.63;4.73;;;;;;;;;;6229455;28;20222;-63
2023/10/13 10:17:43;;;;;;;9.80;4.43;;;;;;;;;;6228652;28;20341;-63
2023/10/13 10:20:47;;;;;;;6.77;4.53;;;;;;;;;;6218749;28;20193;-63
2023/10/13 10:23:53;;;;;;;10.07;4.33;;;;;;;;;;6203571;28;20206;-63
2023/10/13 10:26:54;;;;;;;10.60;4.40;;;;;;;;;;6225612;28;20211;-63
2023/10/13 10:29:56;;;;;;;11.47;4.50;;;;;;;;;;6206356;28;20204;-63
2023/10/13 10:33:01;;;;;;;8.40;4.67;;;;;;;;;;6223325;28;20197;-63
2023/10/13 10:36:02;;;;;;;6.77;4.20;;;;;;;;;;6220197;28;20210;-63
2023/10/13 10:39:07;;;;;;;7.93;4.53;;;;;;;;;;6206783;28;20222;-62
2023/10/13 10:42:15;;;;;;;5.97;4.23;;;;;;;;;;6198762;28;20193;-63
2023/10/13 10:45:21;;;;;;;4.63;3.87;;;;;;;;;;6232789;28;20279;-63
2023/10/13 10:48:31;;;;;;;8.40;4.40;;;;;;;;;;6198863;28;20202;-63
2023/10/13 10:51:33;;;;;;;6.90;3.87;;;;;;;;;;6212633;28;20184;-63
2023/10/13 10:54:34;;;;;;;9.03;4.47;;;;;;;;;;6215128;28;20197;-63
2023/10/13 10:57:38;;;;;;;6.70;4.73;;;;;;;;;;6217067;28;20519;-63
2023/10/13 11:00:46;;;;;;;9.67;5.27;;;;;;;;;;6228762;28;20275;-63
2023/10/13 11:03:57;;;;;;;9.20;4.63;;;;;;;;;;6210275;28;20261;-63
2023/10/13 11:06:58;;;;;;;7.67;4.70;;;;;;;;;;6209858;28;20188;-63
2023/10/13 11:10:19;;;;;;;8.67;4.30;;;;;;;;;;6210545;28;20286;-63
2023/10/13 11:13:23;;;;;;;8.43;4.73;;;;;;;;;;6235251;28;20182;-63
2023/10/13 11:16:24;;;;;;;11.53;4.37;;;;;;;;;;6207008;28;20215;-63
2023/10/13 11:19:34;;;;;;;6.33;4.37;;;;;;;;;;6209908;28;20189;-63
2023/10/13 11:22:41;;;;;;;8.10;4.10;;;;;;;;;;6225800;28;20194;-63
2023/10/13 11:25:45;;;;;;;8.90;4.27;;;;;;;;;;6213455;28;20247;-63
2023/10/13 11:28:55;;;;;;;14.90;5.03;;;;;;;;;;6206968;28;20203;-63
2023/10/13 11:32:00;;;;;;;8.93;4.47;;;;;;;;;;6229205;28;20203;-63
2023/10/13 11:35:01;;;;;;;7.73;4.07;;;;;;;;;;6218458;28;20195;-63
2023/10/13 11:38:49;;;;;;;6.80;3.87;;;;;;;;;;6210023;28;20191;-63
2023/10/13 11:41:33;;;;;;;9.93;4.10;;;;;;;;;;6225025;28;20195;-63
2023/10/13 11:44:43;;;;;;;10.83;4.47;;;;;;;;;;6210333;28;20206;-63
2023/10/13 11:47:59;;;;;;;8.73;4.63;;;;;;;;;;6216832;28;20222;-63
2023/10/13 11:51:06;;;;;;;8.33;3.90;;;;;;;;;;6212935;28;20309;-63
2023/10/13 11:54:07;;;;;;;5.80;3.67;;;;;;;;;;6208860;28;20218;-63
2023/10/13 11:57:08;;;;;;;9.40;4.07;;;;;;;;;;6225560;28;20221;-66
2023/10/13 12:00:26;;;;;;;10.53;4.53;;;;;;;;;;6227652;28;20182;-64
2023/10/13 12:07:14;;;;;;;6.60;3.90;;;;;;;;;;6232562;28;20233;-63
2023/10/13 12:10:16;;;;;;;9.03;4.07;;;;;;;;;;6204129;28;20214;-63
2023/10/13 12:13:19;;;;;;;5.90;3.63;;;;;;;;;;6212488;28;20199;-63
2023/10/13 12:16:21;;;;;;;8.73;4.03;;;;;;;;;;6204698;28;20783;-63
2023/10/13 12:19:23;;;;;;;12.47;4.17;;;;;;;;;;6241838;28;20204;-63
2023/10/13 12:22:28;;;;;;;10.90;4.70;;;;;;;;;;6227335;28;20191;-63
2023/10/13 12:28:40;;;;;;;8.60;4.00;;;;;;;;;;6224327;28;20203;-63
2023/10/13 12:31:50;;;;;;;6.50;3.43;;;;;;;;;;6207739;28;20203;-63
2023/10/13 12:38:05;;;;;;;9.00;3.70;;;;;;;;;;6232167;28;20304;-63
2023/10/13 12:51:19;;;;;;;8.30;3.83;;;;;;;;;;6204821;28;20270;-63
2023/10/13 12:54:23;;;;;;;6.53;4.07;;;;;;;;;;6229015;28;20194;-63
2023/10/13 12:57:24;;;;;;;6.37;4.10;;;;;;;;;;6210599;28;20242;-63
2023/10/13 13:00:32;;;;;;;8.90;4.40;;;;;;;;;;6224231;28;20214;-63
2023/10/13 13:03:34;;;;;;;9.03;3.50;;;;;;;;;;6209740;28;20226;-63
2023/10/13 13:06:35;;;;;;;8.30;4.40;;;;;;;;;;6231208;28;20239;-63
2023/10/13 13:09:37;;;;;;;7.53;4.30;;;24.70;50.70;;;;;;6213792;28;20266;-66
2023/10/13 13:12:38;;;;;;;9.03;4.00;;;30.60;38.40;;;;;;6224153;28;20317;-62
2023/10/13 13:15:39;;;;;;;8.37;4.03;;;31.70;36.80;;;;;;6187744;28;20214;-62
2023/10/13 13:18:40;;;;;;;10.00;3.87;;;32.80;35.80;;;;;;6212187;28;20189;-63
2023/10/13 13:21:41;;;;;;;7.77;3.70;;;33.70;34.10;;;;;;6213914;28;20281;-62
2023/10/13 13:24:45;;;;;;;7.53;3.55;;;34.20;34.40;;;;;;6182660;28;20316;-63
2023/10/13 13:27:46;;;;;;;5.28;3.75;;;34.20;34.00;;;;;;6200645;28;20199;-63
2023/10/13 13:30:50;;;;;;;7.38;3.72;;;34.70;34.00;;;;;;6190027;28;20206;-62
2023/10/13 13:33:51;;;;;;;8.23;3.88;;;34.60;33.50;;;;;;6200102;28;20191;-62
2023/10/13 13:36:53;;;;;;;5.50;3.60;;;34.20;32.40;;;;;;6207758;28;20214;-62
2023/10/13 13:39:54;;;;;;;6.70;4.05;;;34.00;34.70;;;;;;6199299;28;20280;-62
2023/10/13 13:42:57;;;;;;;8.60;4.03;;;33.60;35.50;;;;;;6197757;28;20190;-63
2023/10/13 13:46:02;;;;;;;7.45;4.13;;;33.10;36.40;;;;;;6188821;28;20248;-63
2023/10/13 13:49:06;;;;;;;8.13;3.53;;;32.80;36.30;;;;;;6209156;28;20218;-62
2023/10/13 13:52:08;;;;;;;6.88;3.70;;;;;;;;;;6196837;28;20198;-63
2023/10/13 13:55:09;;;;;;;7.77;3.60;;;;;;;;;;6227276;28;20190;-63
2023/10/13 13:58:10;;;;;;;7.27;3.60;;;;;;;;;;6193559;28;20194;-64
2023/10/13 14:01:12;;;;;;;6.53;3.63;;;;;;;;;;6208254;28;20193;-63
2023/10/13 14:04:17;;;;;;;7.47;3.70;;;29.50;41.90;;;;;;6207848;28;20267;-62
2023/10/13 14:07:23;;;;;;;6.30;3.70;;;29.20;42.50;;;;;;6196000;28;20197;-62
2023/10/13 14:11:12;;;;;;;5.70;3.87;;;;;;;;;;6210451;28;20202;-62
2023/10/13 14:13:57;;;;;;;7.33;4.23;;;;;;;;;;6225042;28;20207;-63
2023/10/13 14:17:07;;;;;;;5.37;4.33;;;;;;;;;;6212909;28;20214;-63
2023/10/13 14:20:14;;;;;;;4.63;3.50;;;;;;;;;;6211945;28;20183;-63
2023/10/13 14:23:16;;;;;;;8.63;3.50;;;;;;;;;;6210960;28;20201;-63
2023/10/13 14:26:35;;;;;;;6.27;3.50;;;;;;;;;;6206709;28;20336;-63
2023/10/13 14:29:42;;;;;;;6.97;3.50;;;;;;;;;;6223108;28;20355;-63
2023/10/13 14:32:43;;;;;;;7.20;3.50;;;;;;;;;;6202616;28;20203;-63
2023/10/13 14:35:47;;;;;;;12.97;4.20;;;28.80;43.60;;;;;;6206159;28;20210;-63
2023/10/13 14:38:49;;;;;;;5.77;3.67;;;26.70;49.20;;;;;;6211952;28;20191;-63
2023/10/13 14:41:50;;;;;;;6.37;4.13;;;26.70;49.60;;;;;;6225880;28;20184;-63
2023/10/13 14:44:55;;;;;;;7.00;3.70;;;26.70;49.50;;;;;;6188185;28;20198;-63
2023/10/13 14:47:56;;;;;;;9.00;4.00;;;26.80;49.40;;;;;;6194629;28;20195;-63
2023/10/13 14:50:56;;;;;;;8.27;3.90;;;26.90;49.70;;;;;;6184540;28;20291;-63
2023/10/13 14:54:03;;;;;;;7.70;4.07;;;26.80;49.50;;;;;;6190626;28;20190;-62
2023/10/13 14:57:04;;;;;;;6.43;3.97;;;26.70;49.80;;;;;;6221241;28;20211;-63
2023/10/13 15:00:13;;;;;;;7.77;4.07;;;26.60;49.80;;;;;;6206765;28;20186;-63
2023/10/13 15:03:13;;;;;;;11.17;3.80;;;26.70;49.70;;;;;;6194887;28;20207;-62
2023/10/13 15:06:18;;;;;;;6.93;3.90;;;26.90;49.80;;;;;;6201922;28;20286;-62
2023/10/13 15:09:23;;;;;;;7.97;3.97;;;27.10;50.00;;;;;;6213042;28;20193;-63
2023/10/13 15:12:25;;;;;;;10.53;4.60;;;27.20;49.40;;;;;;6225505;28;20194;-63
2023/10/13 15:15:26;;;;;;;9.77;4.60;;;;;;;;;;6193090;28;20243;-62
2023/10/13 15:18:28;;;;;;;6.20;3.90;;;;;;;;;;6204301;28;20190;-62
2023/10/13 15:21:35;;;;;;;8.13;4.37;;;;;;;;;;6204611;28;20191;-63
2023/10/13 15:24:43;;;;;;;8.17;4.10;;;27.50;49.20;;;;;;6193250;28;20330;-63
2023/10/13 15:27:50;;;;;;;9.50;4.07;;;;;;;;;;6190735;28;20188;-63
2023/10/13 15:31:10;;;;;;;5.20;3.73;;;;;;;;;;6216539;28;20271;-63
2023/10/13 15:34:13;;;;;;;9.60;3.63;;;24.00;50.00;;;;;;6202166;28;20250;-63
2023/10/13 15:37:15;;;;;;;11.10;4.90;;;;;;;;;;6193062;28;20235;-63
2023/10/13 15:40:16;;;;;;;9.07;4.10;;;24.40;56.70;;;;;;6200128;28;20255;-63
2023/10/13 15:43:17;;;;;;;6.93;4.47;;;;;;;;;;6207331;28;20234;-63
2023/10/13 15:46:24;;;;;;;15.03;4.33;;;;;;;;;;6203515;28;20183;-63
2023/10/13 15:49:28;;;;;;;12.77;3.97;;;;;;;;;;6207000;28;20242;-63
2023/10/13 15:52:29;;;;;;;8.40;4.37;;;;;;;;;;6223041;28;20183;-63
2023/10/13 15:55:36;;;;;;;24.07;5.37;;;;;;;;;;6200481;28;20226;-63
2023/10/13 15:58:37;;;;;;;11.23;4.47;;;;;;;;;;6222215;28;20184;-63
2023/10/13 16:01:41;;;;;;;13.00;5.23;;;;;;;;;;6189200;28;20193;-63
2023/10/13 16:04:44;;;;;;;9.57;4.10;;;;;;;;;;6223424;28;20246;-63
2023/10/13 16:07:45;;;;;;;13.33;4.53;;;;;;;;;;6207489;28;20198;-63
2023/10/13 16:10:46;;;;;;;15.83;4.73;;;;;;;;;;6212322;28;20263;-63
2023/10/13 16:13:51;;;;;;;15.10;4.90;;;;;;;;;;6191540;28;20194;-63
2023/10/13 16:16:55;;;;;;;11.90;5.37;;;;;;;;;;6215347;28;20208;-64
2023/10/13 16:19:55;;;;;;;10.87;4.50;;;24.00;50.00;;;;;;6221572;28;20215;-63
2023/10/13 16:22:56;;;;;;;8.20;4.63;;;;;;;;;;6185860;28;20191;-63
2023/10/13 16:26:01;;;;;;;16.27;5.73;;;;;;;;;;6197025;28;20247;-63
2023/10/13 16:29:02;;;;;;;20.03;5.37;;;;;;;;;;6207155;28;20191;-63
2023/10/13 16:32:03;;;;;;;21.57;6.13;;;;;;;;;;6202046;28;20198;-63
2023/10/13 16:35:05;;;;;;;22.27;5.97;;;;;;;;;;6205083;28;20286;-63
2023/10/13 16:38:06;;;;;;;10.43;5.30;;;;;;;;;;6194913;28;20183;-63
2023/10/13 16:41:12;;;;;;;15.10;6.53;;;;;;;;;;6208261;28;20188;-63
2023/10/13 16:44:13;;;;;;;9.67;5.83;;;;;;;;;;6202442;28;20187;-63
2023/10/13 16:47:14;;;;;;;10.30;6.80;;;;;;;;;;6215036;28;20249;-63
2023/10/13 16:50:18;;;;;;;11.67;7.83;;;;;;;;;;6190596;28;20197;-63
2023/10/13 16:53:20;;;;;;;14.73;9.23;;;;;;;;;;6205053;28;20195;-63
2023/10/13 16:56:22;;;;;;;12.60;8.37;;;;;;;;;;6201625;28;20220;-63
2023/10/13 16:59:25;;;;;;;9.07;7.00;;;;;;;;;;6197415;28;20195;-63
2023/10/13 17:02:27;;;;;;;12.70;6.33;;;;;;;;;;6197687;28;20195;-63
2023/10/13 17:05:28;;;;;;;28.90;18.20;;;;;;;;;;6204273;28;20222;-63
2023/10/13 17:08:29;;;;;;;42.00;22.87;;;;;;;;;;6201402;28;20274;-63
2023/10/13 17:11:30;;;;;;;32.03;17.47;;;;;;;;;;6200732;28;20203;-63
2023/10/13 17:14:31;;;;;;;28.27;18.17;;;;;;;;;;6223888;28;20197;-63
2023/10/13 17:17:32;;;;;;;22.60;14.70;;;;;;;;;;6207722;28;20241;-63
2023/10/13 17:20:34;;;;;;;15.87;10.77;;;;;;;;;;6197257;28;20218;-63
2023/10/13 17:23:35;;;;;;;13.80;9.67;;;;;;;;;;6204169;28;20187;-63
2023/10/13 17:26:37;;;;;;;17.73;10.47;;;;;;;;;;6212811;28;20209;-63
2023/10/13 17:29:40;;;;;;;16.80;10.60;;;;;;;;;;6209370;28;20234;-63
2023/10/13 17:32:44;;;;;;;17.00;9.30;;;;;;;;;;6202075;28;20200;-63
2023/10/13 17:35:45;;;;;;;14.83;8.97;;;;;;;;;;6191195;28;20219;-63
2023/10/13 17:38:47;;;;;;;15.07;10.67;;;;;;;;;;6206753;28;20188;-63
2023/10/13 17:41:48;;;;;;;20.57;10.53;;;;;;;;;;6211666;28;20278;-63
2023/10/13 17:44:50;;;;;;;12.97;9.37;;;;;;;;;;6208695;28;20203;-62
2023/10/13 17:47:51;;;;;;;16.70;11.10;;;;;;;;;;6201932;28;20286;-62
2023/10/13 17:50:52;;;;;;;17.13;10.87;;;;;;;;;;6214569;28;20205;-63
2023/10/13 17:53:55;;;;;;;16.30;10.17;;;;;;;;;;6205575;28;20200;-62
2023/10/13 17:56:56;;;;;;;17.63;11.03;;;;;;;;;;6219371;28;20223;-61
2023/10/13 17:59:57;;;;;;;14.53;9.50;;;;;;;;;;6219244;28;20272;-62
2023/10/13 18:03:03;;;;;;;12.77;8.90;;;;;;;;;;6213605;28;20194;-62
2023/10/13 18:06:04;;;;;;;10.47;9.10;;;;;;;;;;6204180;28;20186;-62
2023/10/13 18:09:10;;;;;;;13.87;8.23;;;;;;;;;;6228352;28;20199;-61
2023/10/13 18:12:12;;;;;;;10.00;8.33;;;;;;;;;;6213780;28;20219;-62
2023/10/13 18:15:24;;;;;;;11.73;7.57;;;;;;;;;;6213466;28;20198;-62
2023/10/13 18:18:26;;;;;;;15.03;8.20;;;;;;;;;;6231268;28;20288;-64
2023/10/13 18:21:29;;;;;;;15.43;7.23;;;;;;;;;;6231080;28;20188;-63
2023/10/13 18:24:30;;;;;;;10.60;7.20;;;;;;;;;;6208864;28;20258;-62
2023/10/13 18:27:32;;;;;;;13.87;8.40;;;;;;;;;;6220145;28;20286;-61
2023/10/13 18:30:34;;;;;;;11.83;7.40;;;;;;;;;;6203049;28;20190;-64
2023/10/13 18:33:36;;;;;;;11.90;7.67;;;;;;;;;;6215271;28;20294;-64
2023/10/13 18:36:38;;;;;;;11.20;7.30;;;;;;;;;;6227847;28;20221;-64
2023/10/13 18:39:40;;;;;;;12.93;8.20;;;;;;;;;;6208821;28;20216;-64
2023/10/13 18:42:42;;;;;;;9.17;7.83;;;;;;;;;;6207922;28;20188;-64
2023/10/13 18:45:45;;;;;;;11.17;7.80;;;;;;;;;;6204474;28;20199;-64
2023/10/13 18:48:47;;;;;;;11.77;7.70;;;;;;;;;;6211410;28;20196;-64
2023/10/13 18:51:49;;;;;;;11.90;7.60;;;;;;;;;;6212556;28;20203;-63
2023/10/13 18:54:50;;;;;;;11.77;7.47;;;;;;;;;;6200634;28;20204;-63
2023/10/13 18:57:54;;;;;;;14.27;11.40;;;;;;;;;;6224574;28;20211;-64
2023/10/13 19:00:56;;;;;;;18.87;9.00;;;;;;;;;;6231667;28;20219;-64
2023/10/13 19:04:01;;;;;;;16.33;8.70;;;;;;;;;;6206416;28;20184;-63
2023/10/13 19:07:03;;;;;;;18.63;9.80;;;;;;;;;;6235548;28;20198;-64
2023/10/13 19:10:14;;;;;;;17.30;9.47;;;;;;;;;;6235589;28;20295;-63
2023/10/13 19:13:16;;;;;;;16.67;8.53;;;;;;;;;;6212297;28;20259;-63
2023/10/13 19:16:18;;;;;;;12.80;8.00;;;;;;;;;;6219129;28;20215;-65
2023/10/13 19:19:23;;;;;;;22.27;8.87;;;;;;;;;;6223709;28;20194;-64
2023/10/13 19:22:24;;;;;;;25.30;9.73;;;;;;;;;;6211545;28;20200;-65
2023/10/13 19:25:28;;;;;;;21.57;9.67;;;;;;;;;;6242565;28;20240;-64
2023/10/13 19:28:30;;;;;;;17.00;9.80;;;;;;;;;;6208295;28;20199;-63
2023/10/13 19:31:33;;;;;;;23.57;16.73;;;;;;;;;;6207095;28;20210;-63
2023/10/13 19:34:34;;;;;;;29.50;17.97;;;;;;;;;;6235358;28;20248;-62
2023/10/13 19:37:42;;;;;;;24.73;15.33;;;;;;;;;;6237182;28;20207;-62
2023/10/13 19:40:43;;;;;;;25.80;12.70;;;;;;;;;;6214341;28;20196;-63
2023/10/13 19:43:45;;;;;;;19.07;12.07;;;;;;;;;;6203474;28;20190;-63
2023/10/13 19:46:47;;;;;;;20.60;10.67;;;;;;;;;;6220455;28;20226;-62
2023/10/13 19:49:49;;;;;;;18.47;10.70;;;;;;;;;;6220542;28;20202;-63
2023/10/13 19:52:51;;;;;;;21.10;13.87;;;;;;;;;;6215522;28;20226;-63
2023/10/13 19:55:54;;;;;;;19.97;14.03;;;16.00;84.10;;;;;;6217220;28;20250;-62
2023/10/13 19:58:56;;;;;;;19.67;13.80;;;;;;;;;;6195945;28;20217;-62
2023/10/13 20:01:57;;;;;;;18.30;12.90;;;;;;;;;;6236595;28;20191;-62
2023/10/13 20:05:04;;;;;;;22.90;13.73;;;;;;;;;;6232653;28;20191;-63
2023/10/13 20:08:06;;;;;;;18.27;13.17;;;;;;;;;;6218811;28;20262;-63
2023/10/13 20:11:12;;;;;;;17.10;12.50;;;;;;;;;;6211856;28;20195;-63
2023/10/13 20:14:13;;;;;;;19.53;11.83;;;;;;;;;;6239020;28;20191;-62
2023/10/13 20:17:14;;;;;;;13.80;11.60;;;;;;;;;;6220957;28;20210;-62
2023/10/13 20:20:18;;;;;;;16.10;11.53;;;;;;;;;;6233964;28;20192;-63
2023/10/13 20:23:19;;;;;;;12.93;10.30;;;;;;;;;;6213216;28;20667;-62
2023/10/13 20:26:21;;;;;;;17.53;11.57;;;;;;;;;;6209458;28;20322;-62
2023/10/13 20:29:23;;;;;;;13.83;11.13;;;;;;;;;;6233736;28;20276;-62
2023/10/13 20:32:24;;;;;;;16.70;12.10;;;;;;;;;;6207352;28;20290;-63
2023/10/13 20:35:25;;;;;;;15.73;11.63;;;;;;;;;;6207383;28;20219;-62
2023/10/13 20:38:28;;;;;;;14.23;11.07;;;;;;;;;;6213530;28;20187;-62